createdAt,value
2018-11-20T00:01:39.891Z,42.17
2018-11-20T00:04:39.064Z,41.07
2018-11-20T00:07:24.713Z,44.83
2018-11-20T00:10:13.421Z,41.03
2018-11-20T00:13:07.444Z,42.50
2018-11-20T00:15:57.531Z,47.07
2018-11-20T00:18:41.484Z,42.53
2018-11-20T00:21:28.879Z,46.07
2018-11-20T00:24:20.534Z,44.23
2018-11-20T00:27:25.885Z,44.37
2018-11-20T00:30:19.352Z,42.13
2018-11-20T00:33:02.900Z,45.17
2018-11-20T00:35:55.705Z,40.37
2018-11-20T00:38:45.964Z,45.47
2018-11-20T00:41:45.662Z,41.10
2018-11-20T00:44:34.398Z,46.80
2018-11-20T00:47:29.633Z,42.50
2018-11-20T00:50:19.659Z,47.90
2018-11-20T00:53:08.846Z,45.17
2018-11-20T00:56:51.923Z,41.23
2018-11-20T00:59:55.696Z,40.37
2018-11-20T01:02:57.977Z,42.27
2018-11-20T01:05:46.458Z,42.00
2018-11-20T01:08:51.809Z,39.50
2018-11-20T01:11:44.580Z,41.97
2018-11-20T01:14:28.288Z,41.47
2018-11-20T01:17:21.154Z,42.10
2018-11-20T01:20:21.248Z,43.60
2018-11-20T01:23:11.382Z,40.53
2018-11-20T01:25:59.908Z,42.30
2018-11-20T01:28:48.734Z,43.10
2018-11-20T01:31:51.137Z,48.87
2018-11-20T01:34:39.780Z,39.90
2018-11-20T01:37:41.890Z,43.83
2018-11-20T01:40:31.955Z,41.90
2018-11-20T01:43:20.468Z,40.87
2018-11-20T01:46:13.391Z,41.37
2018-11-20T01:49:12.112Z,40.07
2018-11-20T01:52:11.074Z,41.83
2018-11-20T01:55:10.082Z,41.20
2018-11-20T01:58:00.495Z,42.53
2018-11-20T02:01:02.695Z,45.40
2018-11-20T02:04:08.567Z,43.60
2018-11-20T02:07:04.244Z,41.07
2018-11-20T02:10:03.219Z,42.93
2018-11-20T02:12:52.105Z,43.00
2018-11-20T02:15:40.762Z,40.37
2018-11-20T02:18:44.706Z,41.87
2018-11-20T02:21:46.970Z,45.77
2018-11-20T02:24:37.071Z,40.47
2018-11-20T02:27:30.648Z,42.13
2018-11-20T02:30:26.067Z,42.57
2018-11-20T02:33:16.161Z,42.33
2018-11-20T02:36:05.114Z,44.03
2018-11-20T02:38:54.276Z,42.30
2018-11-20T02:41:43.092Z,42.83
2018-11-20T02:44:33.163Z,43.40
2018-11-20T02:47:38.505Z,42.60
2018-11-20T02:50:29.029Z,40.47
2018-11-20T02:53:25.090Z,43.77
2018-11-20T02:56:16.586Z,39.70
2018-11-20T02:59:05.492Z,39.70
2018-11-20T03:01:47.433Z,44.97
2018-11-20T03:04:37.968Z,41.03
2018-11-20T03:07:26.517Z,40.03
2018-11-20T03:10:15.878Z,40.37
2018-11-20T03:13:15.669Z,42.90
2018-11-20T03:16:08.728Z,42.77
2018-11-20T03:18:57.899Z,39.53
2018-11-20T03:21:43.399Z,40.60
2018-11-20T03:24:36.328Z,43.00
2018-11-20T03:27:25.229Z,40.60
2018-11-20T03:30:59.007Z,39.53
2018-11-20T03:33:49.364Z,40.73
2018-11-20T03:36:39.479Z,43.10
2018-11-20T03:39:38.531Z,42.37
2018-11-20T03:42:31.446Z,40.37
2018-11-20T03:45:20.162Z,41.07
2018-11-20T03:48:10.600Z,43.60
2018-11-20T03:50:59.433Z,39.67
2018-11-20T03:53:54.670Z,42.20
2018-11-20T03:56:45.496Z,40.00
2018-11-20T03:59:41.630Z,41.93
2018-11-20T04:02:30.156Z,40.73
2018-11-20T04:05:09.277Z,41.90
2018-11-20T04:07:59.358Z,46.47
2018-11-20T04:11:01.426Z,40.17
2018-11-20T04:13:57.267Z,41.97
2018-11-20T04:16:53.250Z,40.00
2018-11-20T04:19:49.290Z,40.67
2018-11-20T04:22:37.752Z,42.97
2018-11-20T04:25:27.459Z,42.50
2018-11-20T04:28:26.440Z,44.40
2018-11-20T04:31:55.549Z,42.00
2018-11-20T04:34:54.854Z,40.10
2018-11-20T04:37:59.818Z,41.80
2018-11-20T04:40:48.634Z,40.37
2018-11-20T04:43:44.705Z,41.40
2018-11-20T04:46:30.251Z,41.97
2018-11-20T04:49:17.377Z,46.20
2018-11-20T04:51:58.544Z,42.27
2018-11-20T04:54:40.946Z,41.20
2018-11-20T04:57:33.767Z,40.27
2018-11-20T05:00:35.895Z,41.97
2018-11-20T05:03:41.123Z,44.13
2018-11-20T05:06:34.343Z,42.33
2018-11-20T05:09:25.559Z,44.73
2018-11-20T05:12:14.305Z,41.47
2018-11-20T05:14:58.610Z,40.93
2018-11-20T05:18:04.044Z,44.03
2018-11-20T05:20:55.133Z,41.63
2018-11-20T05:23:48.113Z,43.27
2018-11-20T05:26:42.345Z,43.13
2018-11-20T05:29:32.485Z,43.70
2018-11-20T05:32:25.383Z,40.37
2018-11-20T05:35:14.537Z,41.73
2018-11-20T05:37:54.467Z,42.27
2018-11-20T05:40:41.107Z,40.37
2018-11-20T05:43:29.884Z,41.20
2018-11-20T05:46:27.924Z,41.63
2018-11-20T05:49:17.936Z,43.50
2018-11-20T05:52:11.855Z,44.53
2018-11-20T05:55:04.289Z,41.07
2018-11-20T05:57:54.276Z,42.10
2018-11-20T06:00:43.241Z,41.93
2018-11-20T06:03:22.219Z,43.80
2018-11-20T06:06:15.572Z,41.80
2018-11-20T06:09:14.448Z,44.17
2018-11-20T06:12:03.199Z,44.50
2018-11-20T06:14:58.398Z,44.33
2018-11-20T06:17:48.848Z,42.53
2018-11-20T06:20:40.903Z,42.90
2018-11-20T06:23:43.289Z,40.90
2018-11-20T06:26:31.773Z,42.50
2018-11-20T06:29:20.640Z,45.57
2018-11-20T06:32:10.678Z,45.27
2018-11-20T06:35:03.331Z,42.67
2018-11-20T06:38:02.334Z,42.60
2018-11-20T06:40:50.884Z,46.93
2018-11-20T06:43:39.482Z,43.87
2018-11-20T06:46:38.514Z,42.23
2018-11-20T06:49:27.079Z,41.93
2018-11-20T06:52:15.975Z,41.20
2018-11-20T06:55:16.352Z,41.90
2018-11-20T06:58:15.259Z,44.80
2018-11-20T07:01:05.260Z,43.93
2018-11-20T07:03:55.851Z,46.37
2018-11-20T07:06:45.176Z,42.90
2018-11-20T07:09:44.318Z,44.13
2018-11-20T07:12:32.172Z,44.93
2018-11-20T07:15:21.280Z,42.37
2018-11-20T07:18:20.730Z,40.53
2018-11-20T07:21:18.774Z,42.07
2018-11-20T07:24:13.504Z,44.67
2018-11-20T07:27:21.911Z,45.33
2018-11-20T07:30:06.565Z,46.37
2018-11-20T07:32:55.440Z,47.43
2018-11-20T07:35:51.565Z,44.50
2018-11-20T07:38:41.641Z,46.30
2018-11-20T07:41:37.801Z,43.03
2018-11-20T07:44:30.977Z,43.60
2018-11-20T07:47:30.218Z,44.47
2018-11-20T07:50:29.530Z,43.43
2018-11-20T07:53:18.615Z,48.73
2018-11-20T07:56:07.339Z,50.37
2018-11-20T07:58:51.069Z,41.87
2018-11-20T08:01:43.997Z,43.80
2018-11-20T08:04:36.897Z,44.77
2018-11-20T08:07:24.817Z,45.53
2018-11-20T08:10:13.759Z,46.17
2018-11-20T08:13:09.828Z,46.37
2018-11-20T08:15:58.549Z,43.77
2018-11-20T08:18:48.459Z,45.87
2018-11-20T08:21:44.605Z,44.33
2018-11-20T08:24:35.535Z,45.43
2018-11-20T08:27:20.732Z,45.60
2018-11-20T08:30:07.659Z,47.40
2018-11-20T08:33:09.778Z,46.23
2018-11-20T08:36:01.860Z,51.37
2018-11-20T08:39:09.976Z,49.43
2018-11-20T08:41:59.611Z,48.17
2018-11-20T08:44:52.124Z,45.40
2018-11-20T08:47:48.161Z,46.10
2018-11-20T08:50:44.121Z,45.33
2018-11-20T08:53:33.153Z,46.50
2018-11-20T08:56:16.355Z,46.87
2018-11-20T08:59:21.669Z,49.77
2018-11-20T09:02:20.610Z,49.70
2018-11-20T09:05:19.197Z,47.23
2018-11-20T09:08:21.375Z,51.67
2018-11-20T09:11:14.807Z,50.53
2018-11-20T09:14:03.500Z,48.53
2018-11-20T09:16:56.315Z,49.93
2018-11-20T09:19:52.132Z,48.40
2018-11-20T09:22:51.342Z,48.83
2018-11-20T09:25:44.596Z,46.20
2018-11-20T09:28:33.407Z,44.97
2018-11-20T09:31:24.434Z,48.43
2018-11-20T09:34:13.299Z,45.80
2018-11-20T09:37:01.916Z,50.73
2018-11-20T09:39:57.769Z,44.27
2018-11-20T09:42:38.916Z,50.53
2018-11-20T09:46:11.908Z,45.00
2018-11-20T09:49:00.457Z,45.40
2018-11-20T09:51:53.468Z,53.53
2018-11-20T09:54:42.334Z,46.63
2018-11-20T09:57:33.252Z,49.03
2018-11-20T10:00:35.219Z,48.57
2018-11-20T10:03:19.890Z,49.33
2018-11-20T10:06:10.846Z,47.73
2018-11-20T10:09:01.474Z,48.57
2018-11-20T10:12:03.232Z,51.77
2018-11-20T10:14:56.129Z,46.37
2018-11-20T10:18:04.144Z,46.60
2018-11-20T10:20:52.804Z,46.80
2018-11-20T10:23:41.485Z,47.93
2018-11-20T10:26:49.387Z,49.80
2018-11-20T10:29:45.352Z,48.63
2018-11-20T10:32:38.929Z,50.73
2018-11-20T10:35:47.584Z,48.00
2018-11-20T10:38:40.576Z,53.67
2018-11-20T10:41:30.622Z,47.53
2018-11-20T10:44:23.183Z,47.97
2018-11-20T10:47:13.470Z,49.40
2018-11-20T10:50:12.384Z,50.67
2018-11-20T10:53:20.843Z,49.43
2018-11-20T10:56:09.437Z,47.23
2018-11-20T10:58:59.863Z,53.50
2018-11-20T11:01:48.761Z,52.77
2018-11-20T11:04:37.643Z,48.83
2018-11-20T11:07:47.887Z,50.27
2018-11-20T11:10:38.138Z,48.87
2018-11-20T11:13:31.045Z,51.50
2018-11-20T11:16:19.599Z,47.83
2018-11-20T11:19:10.784Z,48.23
2018-11-20T11:22:15.546Z,51.27
2018-11-20T11:25:24.538Z,49.17
2018-11-20T11:28:27.468Z,50.33
2018-11-20T11:31:23.809Z,50.30
2018-11-20T11:34:07.541Z,49.60
2018-11-20T11:36:52.064Z,49.07
2018-11-20T11:39:51.080Z,52.20
2018-11-20T11:42:41.613Z,49.33
2018-11-20T11:45:50.128Z,49.83
2018-11-20T11:48:38.906Z,50.10
2018-11-20T11:51:16.063Z,51.27
2018-11-20T11:54:06.528Z,49.13
2018-11-20T11:56:55.112Z,52.67
2018-11-20T11:59:50.091Z,52.77
2018-11-20T12:05:20.255Z,48.97
2018-11-20T12:08:22.365Z,49.17
2018-11-20T12:11:24.608Z,53.13
2018-11-20T12:14:14.733Z,50.47
2018-11-20T12:17:15.281Z,49.80
2018-11-20T12:20:05.458Z,49.67
2018-11-20T12:22:44.910Z,48.83
2018-11-20T12:25:40.861Z,49.03
2018-11-20T12:28:32.762Z,47.83
2018-11-20T12:31:14.233Z,46.93
2018-11-20T12:34:07.259Z,50.03
2018-11-20T12:36:56.856Z,45.20
2018-11-20T12:40:06.592Z,47.07
2018-11-20T12:43:12.842Z,45.13
2018-11-20T12:46:21.789Z,45.40
2018-11-20T12:49:18.757Z,46.17
2018-11-20T12:52:15.784Z,49.00
2018-11-20T12:54:58.080Z,46.53
2018-11-20T12:58:04.065Z,50.37
2018-11-20T13:00:55.236Z,47.33
2018-11-20T13:03:45.169Z,45.30
2018-11-20T13:06:43.017Z,46.13
2018-11-20T13:09:46.833Z,47.80
2018-11-20T13:12:36.837Z,48.50
2018-11-20T13:15:20.616Z,49.63
2018-11-20T13:18:09.191Z,47.33
2018-11-20T13:20:56.781Z,47.80
2018-11-20T13:23:46.973Z,50.93
2018-11-20T13:26:36.184Z,45.10
2018-11-20T13:29:31.901Z,50.10
2018-11-20T13:32:40.362Z,45.53
2018-11-20T13:35:39.365Z,45.97
2018-11-20T13:38:29.317Z,48.50
2018-11-20T13:42:02.035Z,51.77
2018-11-20T13:44:59.796Z,49.00
2018-11-20T13:47:43.403Z,48.70
2018-11-20T13:50:32.183Z,46.93
2018-11-20T13:53:21.151Z,47.73
2018-11-20T13:56:10.213Z,45.30
2018-11-20T13:58:59.049Z,49.17
2018-11-20T14:01:51.864Z,48.60
2018-11-20T14:04:51.166Z,45.07
2018-11-20T14:07:40.621Z,49.23
2018-11-20T14:10:32.229Z,46.07
2018-11-20T14:13:21.537Z,44.87
2018-11-20T14:16:05.699Z,49.47
2018-11-20T14:19:18.383Z,48.20
2018-11-20T14:22:15.786Z,51.57
2018-11-20T14:24:57.654Z,51.90
2018-11-20T14:27:45.135Z,47.93
2018-11-20T14:30:34.194Z,45.03
2018-11-20T14:33:20.244Z,46.50
2018-11-20T14:36:08.934Z,49.17
2018-11-20T14:39:05.182Z,47.80
2018-11-20T14:41:55.585Z,48.97
2018-11-20T14:44:32.674Z,50.37
2018-11-20T14:47:26.457Z,55.10
2018-11-20T14:50:31.570Z,49.17
2018-11-20T14:53:11.469Z,49.30
2018-11-20T14:56:04.659Z,49.03
2018-11-20T14:58:54.820Z,46.70
2018-11-20T15:01:54.063Z,51.33
2018-11-20T15:04:47.900Z,50.63
2018-11-20T15:07:42.561Z,50.83
2018-11-20T15:10:38.301Z,52.13
2018-11-20T15:13:31.596Z,49.57
2018-11-20T15:16:21.497Z,51.37
2018-11-20T15:19:17.722Z,49.43
2018-11-20T15:22:12.222Z,53.53
2018-11-20T15:25:18.830Z,50.00
2018-11-20T15:28:18.311Z,51.73
2018-11-20T15:31:23.281Z,50.80
2018-11-20T15:34:21.950Z,47.83
2018-11-20T15:37:27.543Z,50.27
2018-11-20T15:40:17.355Z,51.63
2018-11-20T15:43:19.605Z,50.90
2018-11-20T15:46:10.736Z,50.53
2018-11-20T15:49:08.356Z,47.37
2018-11-20T15:51:57.060Z,52.20
2018-11-20T15:54:47.109Z,49.87
2018-11-20T15:57:30.446Z,48.10
2018-11-20T16:01:12.084Z,49.77
2018-11-20T16:03:59.234Z,51.83
2018-11-20T16:06:45.237Z,48.93
2018-11-20T16:09:35.347Z,49.20
2018-11-20T16:12:27.277Z,47.13
2018-11-20T16:15:28.159Z,50.43
2018-11-20T16:18:28.719Z,49.50
2018-11-20T16:21:15.928Z,51.37
2018-11-20T16:24:07.498Z,52.87
2018-11-20T16:26:46.033Z,50.40
2018-11-20T16:29:33.492Z,52.67
2018-11-20T16:32:21.064Z,49.80
2018-11-20T16:35:16.862Z,52.23
2018-11-20T16:38:14.120Z,53.63
2018-11-20T16:41:09.242Z,51.27
2018-11-20T16:43:56.875Z,52.23
2018-11-20T16:46:37.470Z,51.87
2018-11-20T16:49:26.568Z,53.67
2018-11-20T16:52:21.496Z,50.23
2018-11-20T16:55:09.102Z,52.37
2018-11-20T16:58:00.554Z,50.47
2018-11-20T17:00:50.354Z,51.77
2018-11-20T17:03:41.160Z,51.40
2018-11-20T17:06:39.290Z,51.50
2018-11-20T17:09:29.101Z,50.07
2018-11-20T17:12:17.931Z,52.33
2018-11-20T17:15:09.282Z,55.03
2018-11-20T17:17:56.914Z,54.63
2018-11-20T17:20:44.422Z,51.90
2018-11-20T17:23:27.951Z,51.30
2018-11-20T17:26:15.135Z,50.23
2018-11-20T17:29:09.796Z,49.90
2018-11-20T17:31:58.618Z,55.40
2018-11-20T17:34:53.194Z,48.87
2018-11-20T17:37:40.782Z,51.73
2018-11-20T17:40:31.153Z,50.67
2018-11-20T17:43:31.981Z,51.73
2018-11-20T17:46:23.511Z,51.70
2018-11-20T17:49:10.908Z,51.53
2018-11-20T17:51:58.287Z,53.40
2018-11-20T17:54:45.954Z,52.03
2018-11-20T17:57:35.870Z,52.17
2018-11-20T18:00:24.814Z,50.80
2018-11-20T18:03:13.585Z,53.27
2018-11-20T18:06:09.758Z,52.00
2018-11-20T18:08:58.430Z,52.37
2018-11-20T18:11:49.857Z,59.17
2018-11-20T18:14:42.363Z,53.57
2018-11-20T18:17:40.683Z,53.57
2018-11-20T18:20:47.322Z,54.53
2018-11-20T18:23:25.669Z,52.73
2018-11-20T18:26:27.357Z,52.63
2018-11-20T18:29:35.862Z,54.60
2018-11-20T18:32:30.671Z,52.87
2018-11-20T18:35:19.996Z,56.17
2018-11-20T18:38:12.642Z,56.77
2018-11-20T18:41:13.541Z,54.70
2018-11-20T18:44:05.855Z,52.67
2018-11-20T18:46:54.745Z,58.50
2018-11-20T18:49:42.413Z,57.57
2018-11-20T18:52:30.299Z,60.57
2018-11-20T18:55:19.056Z,55.70
2018-11-20T18:58:22.751Z,52.23
2018-11-20T19:01:21.530Z,52.50
2018-11-20T19:04:16.066Z,54.73
2018-11-20T19:07:15.226Z,55.23
2018-11-20T19:09:59.205Z,57.83
2018-11-20T19:12:48.248Z,57.10
2018-11-20T19:15:47.944Z,61.30
2018-11-20T19:18:52.233Z,61.07
2018-11-20T19:21:39.461Z,57.63
2018-11-20T19:24:34.069Z,58.90
2018-11-20T19:27:25.954Z,54.00
2018-11-20T19:30:16.908Z,59.33
2018-11-20T19:33:04.760Z,57.47
2018-11-20T19:35:56.541Z,57.77
2018-11-20T19:38:54.322Z,54.60
2018-11-20T19:41:39.702Z,51.93
2018-11-20T19:44:40.708Z,56.17
2018-11-20T19:47:32.399Z,57.43
2018-11-20T19:50:20.232Z,62.57
2018-11-20T19:53:07.621Z,57.20
2018-11-20T19:55:58.932Z,61.43
2018-11-20T19:59:01.762Z,60.60
2018-11-20T20:01:54.136Z,59.10
2018-11-20T20:04:41.826Z,56.17
2018-11-20T20:07:30.068Z,56.50
2018-11-20T20:10:19.853Z,56.50
2018-11-20T20:13:15.541Z,55.60
2018-11-20T20:16:04.362Z,58.10
2018-11-20T20:18:59.251Z,57.87
2018-11-20T20:21:48.031Z,54.27
2018-11-20T20:24:42.363Z,59.83
2018-11-20T20:27:43.189Z,54.30
2018-11-20T20:30:29.831Z,58.10
2018-11-20T20:33:16.421Z,59.27
2018-11-20T20:36:03.557Z,59.03
2018-11-20T20:38:55.301Z,55.13
2018-11-20T20:41:42.823Z,58.53
2018-11-20T20:44:44.863Z,53.27
2018-11-20T20:47:32.279Z,53.47
2018-11-20T20:50:24.010Z,57.93
2018-11-20T20:53:11.287Z,56.33
2018-11-20T20:55:58.737Z,58.23
2018-11-20T20:58:46.107Z,56.67
2018-11-20T21:01:43.791Z,55.23
2018-11-20T21:04:39.097Z,56.87
2018-11-20T21:07:29.258Z,55.10
2018-11-20T21:10:21.142Z,55.23
2018-11-20T21:13:21.951Z,58.70
2018-11-20T21:16:16.757Z,54.83
2018-11-20T21:19:20.721Z,56.73
2018-11-20T21:22:08.661Z,59.53
2018-11-20T21:25:06.507Z,60.00
2018-11-20T21:27:53.274Z,56.13
2018-11-20T21:30:43.381Z,60.57
2018-11-20T21:33:28.182Z,54.67
2018-11-20T21:36:19.610Z,56.13
2018-11-20T21:39:12.400Z,57.30
2018-11-20T21:42:07.249Z,58.23
2018-11-20T21:44:48.479Z,59.33
2018-11-20T21:47:28.506Z,56.60
2018-11-20T21:50:12.476Z,57.07
2018-11-20T21:52:59.611Z,57.83
2018-11-20T21:55:47.177Z,57.17
2018-11-20T21:58:53.902Z,59.27
2018-11-20T22:01:46.843Z,55.60
2018-11-20T22:04:35.524Z,57.53
2018-11-20T22:07:24.471Z,55.60
2018-11-20T22:10:12.246Z,56.03
2018-11-20T22:12:59.598Z,60.00
2018-11-20T22:15:46.894Z,55.83
2018-11-20T22:18:34.380Z,55.00
2018-11-20T22:21:21.605Z,54.93
2018-11-20T22:24:10.403Z,56.70
2018-11-20T22:27:03.828Z,54.83
2018-11-20T22:29:50.024Z,55.40
2018-11-20T22:32:38.819Z,56.20
2018-11-20T22:35:26.190Z,58.93
2018-11-20T22:38:23.946Z,54.83
2018-11-20T22:41:23.190Z,53.27
2018-11-20T22:44:23.691Z,56.90
2018-11-20T22:47:01.518Z,59.37
2018-11-20T22:49:50.378Z,56.60
2018-11-20T22:52:38.260Z,58.20
2018-11-20T22:55:28.458Z,57.73
2018-11-20T22:58:21.146Z,57.47
2018-11-20T23:01:18.437Z,57.53
2018-11-20T23:04:07.360Z,60.20
2018-11-20T23:07:00.634Z,56.73
2018-11-20T23:09:33.465Z,57.93
2018-11-20T23:12:03.393Z,55.80
2018-11-20T23:14:33.212Z,57.73
2018-11-20T23:17:05.436Z,63.30
2018-11-20T23:19:35.322Z,59.23
2018-11-20T23:22:05.242Z,58.30
2018-11-20T23:24:35.134Z,52.33
2018-11-20T23:27:05.234Z,58.73
2018-11-20T23:29:35.147Z,59.23
2018-11-20T23:32:05.075Z,55.63
2018-11-20T23:34:34.990Z,56.47
2018-11-20T23:37:04.883Z,55.90
2018-11-20T23:39:34.740Z,55.53
2018-11-20T23:42:06.468Z,55.70
2018-11-20T23:44:36.272Z,59.20
2018-11-20T23:47:07.239Z,57.30
2018-11-20T23:49:37.149Z,54.87
2018-11-20T23:52:06.942Z,55.87
2018-11-20T23:54:36.880Z,54.40
2018-11-20T23:57:06.982Z,55.77
2018-11-20T23:59:37.621Z,54.30
